Time;durP1;ratioP1;P1;durP2;ratioP2;P2;SDS_P1;SDS_P2;PMS_P1;PMS_P2;Temp;Humidity;BMP_temperature;BMP_pressure;BME280_temperature;BME280_humidity;BME280_pressure;Samples;Min_cycle;Max_cycle;Signal;HPM_P1;HPM_P2
2022/06/03 00:01:21;;;;;;;7.38;3.80;;;;;;;19.24;78.43;99435.44;5095850;27;20047;-52
2022/06/03 00:04:12;;;;;;;6.40;3.60;;;;;;;19.25;78.68;99442.38;5119965;27;20038;-55
2022/06/03 00:07:17;;;;;;;7.47;4.57;;;;;;;19.26;78.59;99433.53;5132280;27;20085;-54
2022/06/03 00:10:16;;;;;;;6.63;4.20;;;;;;;19.23;78.64;99437.22;5069088;28;20044;-52
2022/06/03 00:13:05;;;;;;;7.65;4.40;;;;;;;19.22;78.58;99435.53;5111310;27;20142;-52
2022/06/03 00:15:41;;;;;;;7.22;4.25;;;;;;;19.21;78.94;99439.13;5126647;27;20084;-54
2022/06/03 00:18:22;;;;;;;5.75;5.05;;;;;;;19.20;78.96;99439.25;5128025;27;20574;-52
2022/06/03 00:21:01;;;;;;;8.45;5.25;;;;;;;19.17;79.46;99442.94;5122023;27;21567;-52
2022/06/03 00:23:57;;;;;;;6.82;4.47;;;;;;;19.17;79.50;99431.56;5113569;27;20043;-53
2022/06/03 00:26:32;;;;;;;8.57;6.18;;;;;;;19.16;79.55;99440.41;5130749;27;20446;-55
2022/06/03 00:29:24;;;;;;;9.25;5.22;;;;;;;19.12;79.90;99445.06;5122793;27;20049;-56
2022/06/03 00:32:15;;;;;;;11.15;5.50;;;;;;;19.11;80.10;99448.66;5106150;28;20078;-54
2022/06/03 00:34:46;;;;;;;12.55;5.65;;;;;;;19.07;80.44;99439.28;5119111;27;20046;-53
2022/06/03 00:37:20;;;;;;;13.07;5.53;;;;;;;19.07;80.63;99441.09;5132119;27;20113;-56
2022/06/03 00:40:01;;;;;;;9.65;4.72;;;;;;;19.09;80.95;99442.66;5121887;27;20059;-55
2022/06/03 00:42:43;;;;;;;15.25;6.85;;;;;;;19.11;81.12;99440.75;5132030;27;20051;-54
2022/06/03 00:45:33;;;;;;;9.77;5.93;;;;;;;19.15;81.21;99439.59;5118798;28;20046;-53
2022/06/03 00:48:26;;;;;;;6.72;4.80;;;;;;;19.20;81.10;99449.78;5131628;27;20035;-56
2022/06/03 00:51:16;;;;;;;16.60;6.53;;;;;;;19.17;81.06;99439.47;5122575;27;20039;-53
2022/06/03 00:53:57;;;;;;;9.30;5.57;;;;;;;19.29;81.21;99451.75;5139300;27;20108;-54
2022/06/03 00:56:32;;;;;;;12.75;5.88;;;;;;;19.32;81.17;99447.06;5111369;28;20041;-56
2022/06/03 00:59:30;;;;;;;13.07;6.18;;;;;;;19.35;81.00;99457.41;5113431;28;20033;-53
2022/06/03 01:02:18;;;;;;;9.93;6.22;;;;;;;19.39;80.85;99452.75;5102878;28;20054;-54
2022/06/03 01:04:47;;;;;;;10.48;5.93;;;;;;;19.39;80.72;99452.75;5128301;28;20035;-53
2022/06/03 01:07:32;;;;;;;11.65;6.65;;;;;;;19.38;80.97;99448.41;5130782;28;20034;-53
2022/06/03 01:10:24;;;;;;;12.25;6.43;;;;;;;19.38;81.10;99458.97;5124956;28;20054;-51
2022/06/03 01:13:05;;;;;;;11.13;7.13;;;;;;;19.35;81.24;99457.41;5118318;28;20042;-54
2022/06/03 01:15:50;;;;;;;12.95;7.28;;;;;;;19.26;81.90;99458.06;5118507;28;20118;-54
2022/06/03 01:18:37;;;;;;;8.70;6.40;;;;;;;19.18;82.61;99451.69;5131387;28;20046;-50
2022/06/03 01:21:50;;;;;;;11.02;6.53;;;;;;;19.10;83.39;99452.25;5121329;28;20486;-54
2022/06/03 01:24:17;;;;;;;12.05;6.85;;;;;;;19.02;84.11;99449.34;5089841;28;20093;-51
2022/06/03 01:26:57;;;;;;;11.02;6.78;;;;;;;18.94;84.98;99442.00;5115829;28;20062;-51
2022/06/03 01:29:31;;;;;;;14.23;7.80;;;;;;;18.90;85.59;99437.03;5132563;27;20890;-54
2022/06/03 01:32:10;;;;;;;12.10;7.50;;;;;;;18.79;85.95;99419.38;5131596;27;20048;-54
2022/06/03 01:34:42;;;;;;;10.30;7.40;;;;;;;18.84;86.20;99433.06;5096250;28;20145;-53
2022/06/03 01:37:22;;;;;;;12.15;7.65;;;;;;;18.82;86.60;99447.31;5115233;27;20040;-51
2022/06/03 01:40:10;;;;;;;12.82;7.60;;;;;;;18.74;87.92;99434.66;5115902;27;20059;-55
2022/06/03 01:43:10;;;;;;;13.23;8.18;;;;;;;18.68;89.15;99436.91;5123835;27;20468;-53
2022/06/03 01:45:55;;;;;;;;;;;;;;;18.63;89.37;99431.13;5122324;27;20035;-53
2022/06/03 01:48:45;;;;;;;13.32;8.18;;;;;;;18.59;89.18;99420.81;5123686;27;19922;-57
2022/06/03 01:51:22;;;;;;;15.40;9.27;;;;;;;18.58;89.59;99408.59;5128912;27;20419;-54
2022/06/03 01:54:00;;;;;;;12.60;8.90;;;;;;;18.58;89.84;99424.38;5131543;27;20095;-55
2022/06/03 01:56:47;;;;;;;21.42;9.10;;;;;;;18.55;90.91;99429.88;5133292;27;20035;-54
2022/06/03 01:59:32;;;;;;;15.52;9.63;;;;;;;18.53;91.92;99431.75;5132989;27;20038;-50
2022/06/03 02:02:23;;;;;;;16.67;9.63;;;;;;;18.43;92.52;99425.44;5133178;27;20039;-51
2022/06/03 02:05:04;;;;;;;16.60;10.55;;;;;;;18.48;93.48;99433.84;5128894;27;20142;-50
2022/06/03 02:07:55;;;;;;;18.38;11.05;;;;;;;18.45;94.56;99428.81;5119409;27;20042;-51
2022/06/03 02:10:48;;;;;;;20.00;10.90;;;;;;;18.42;94.71;99425.56;5119999;27;20050;-53
2022/06/03 02:13:39;;;;;;;16.02;10.18;;;;;;;18.40;95.74;99423.03;5132570;27;20062;-55
2022/06/03 02:16:32;;;;;;;16.38;9.52;;;;;;;18.38;96.16;99419.66;5131668;27;21687;-55
2022/06/03 02:19:13;;;;;;;15.48;10.55;;;;;;;18.37;96.35;99423.25;5113217;28;20047;-53
2022/06/03 02:22:16;;;;;;;16.13;9.77;;;;;;;18.38;96.80;99421.44;5129829;27;20047;-53
2022/06/03 02:25:06;;;;;;;14.32;9.82;;;;;;;18.34;96.33;99412.94;5112801;28;20075;-53
2022/06/03 02:27:58;;;;;;;15.90;9.43;;;;;;;18.42;96.33;99410.59;5127796;27;20426;-53
2022/06/03 02:30:34;;;;;;;14.60;9.55;;;;;;;18.44;96.18;99416.59;5132626;27;20054;-52
2022/06/03 02:33:24;;;;;;;13.35;8.75;;;;;;;18.44;96.05;99416.59;5117606;27;20488;-52
2022/06/03 02:36:11;;;;;;;11.25;8.32;;;;;;;18.45;95.93;99417.44;5126922;27;20418;-55
2022/06/03 02:39:00;;;;;;;9.85;8.65;;;;;;;18.44;95.99;99402.59;5113767;28;20146;-54
2022/06/03 02:41:38;;;;;;;13.52;8.82;;;;;;;18.44;95.86;99405.22;5118358;27;20130;-52
2022/06/03 02:44:23;;;;;;;12.37;8.23;;;;;;;18.46;95.67;99405.97;5113723;28;20067;-54
2022/06/03 02:47:07;;;;;;;12.73;8.43;;;;;;;18.48;95.81;99406.69;5119564;27;20277;-52
2022/06/03 02:49:32;;;;;;;13.45;8.45;;;;;;;18.52;95.53;99411.66;5114873;27;20092;-49
2022/06/03 02:52:21;;;;;;;14.85;8.55;;;;;;;18.57;95.24;99420.09;5112561;27;20047;-51
2022/06/03 02:55:14;;;;;;;12.85;8.20;;;;;;;18.59;94.90;99407.66;5113253;28;20136;-50
2022/06/03 02:58:05;;;;;;;12.25;8.32;;;;;;;18.60;94.76;99411.97;5128291;27;20073;-51
2022/06/03 03:00:45;;;;;;;13.63;8.63;;;;;;;18.63;94.45;99411.72;5127459;27;20051;-51
2022/06/03 03:03:38;;;;;;;11.98;8.25;;;;;;;18.66;94.07;99410.69;5117722;27;20039;-51
2022/06/03 03:06:42;;;;;;;13.00;7.82;;;;;;;18.69;93.55;99399.06;5130813;27;20126;-52
2022/06/03 03:09:19;;;;;;;10.30;7.88;;;;;;;18.73;93.32;99406.66;5113203;27;20522;-53
2022/06/03 03:12:02;;;;;;;11.93;8.10;;;;;;;18.80;92.95;99405.25;5117636;27;20130;-54
2022/06/03 03:14:48;;;;;;;13.07;8.30;;;;;;;18.86;92.18;99420.63;5111872;27;20422;-51
2022/06/03 03:17:43;;;;;;;10.60;7.65;;;;;;;18.87;91.87;99410.94;5123318;27;20514;-55
2022/06/03 03:20:41;;;;;;;11.40;7.60;;;;;;;18.85;91.68;99408.41;5145208;27;20043;-53
2022/06/03 03:23:34;;;;;;;13.87;8.33;;;;;;;18.84;91.38;99401.44;5078437;28;20058;-52
2022/06/03 03:26:19;;;;;;;11.20;7.80;;;;;;;18.84;91.44;99404.06;5114993;27;20081;-55
2022/06/03 03:29:04;;;;;;;10.13;7.68;;;;;;;18.83;91.39;99402.41;5109934;28;20044;-54
2022/06/03 03:31:50;;;;;;;13.45;7.65;;;;;;;18.85;91.25;99397.84;5126271;27;20035;-54
2022/06/03 03:34:48;;;;;;;15.63;7.85;;;;;;;18.84;91.06;99400.63;5114917;27;20035;-52
2022/06/03 03:37:25;;;;;;;14.23;7.53;;;;;;;18.85;90.95;99397.00;5092890;27;20062;-54
2022/06/03 03:39:57;;;;;;;11.93;7.72;;;;;;;18.83;90.99;99405.06;5130015;27;20123;-51
2022/06/03 03:42:25;;;;;;;13.68;7.45;;;;;;;18.92;90.79;99412.28;5121290;27;20480;-53
2022/06/03 03:45:13;;;;;;;11.40;7.47;;;;;;;19.00;90.58;99402.00;5114318;27;20043;-54
2022/06/03 03:48:22;;;;;;;16.60;7.63;;;;;;;19.12;89.53;99400.28;5132473;27;20150;-56
2022/06/03 03:51:15;;;;;;;10.73;7.43;;;;;;;19.27;88.46;99393.84;5129185;27;20035;-54
2022/06/03 03:54:03;;;;;;;10.35;7.03;;;;;;;19.41;87.36;99400.75;5111922;28;20050;-55
2022/06/03 03:56:48;;;;;;;13.32;7.60;;;;;;;19.53;86.26;99396.34;5111890;27;20043;-51
2022/06/03 03:59:26;;;;;;;11.57;8.02;;;;;;;19.63;85.52;99398.19;5118320;27;20043;-50
2022/06/03 04:01:57;;;;;;;15.07;8.33;;;;;;;19.73;84.73;99390.44;5130908;27;20129;-52
2022/06/03 04:04:27;;;;;;;13.18;7.60;;;;;;;19.78;84.12;99391.72;5124010;27;20047;-53
2022/06/03 04:07:31;;;;;;;12.25;7.70;;;;;;;19.82;83.69;99379.16;5113043;27;20031;-52
2022/06/03 04:10:15;;;;;;;11.43;7.18;;;;;;;19.89;83.58;99369.81;5085611;27;20140;-50
2022/06/03 04:12:56;;;;;;;15.35;7.05;;;;;;;19.97;83.08;99371.84;5114591;27;20434;-50
2022/06/03 04:15:59;;;;;;;18.23;7.40;;;;;;;19.97;82.57;99377.97;5129488;27;20039;-53
2022/06/03 04:18:42;;;;;;;12.63;7.50;;;;;;;20.01;82.45;99379.41;5112002;28;20047;-50
2022/06/03 04:21:43;;;;;;;12.55;7.22;;;;;;;20.04;82.16;99359.88;5112995;27;20063;-53
2022/06/03 04:24:33;;;;;;;12.20;7.10;;;;;;;20.12;81.84;99342.47;5107622;28;20055;-51
2022/06/03 04:27:23;;;;;;;10.48;6.93;;;;;;;20.27;81.29;99348.31;5112217;27;20073;-53
2022/06/03 04:30:13;;;;;;;11.73;6.60;;;;;;;20.35;80.89;99356.53;5118029;27;20062;-54
2022/06/03 04:32:57;;;;;;;12.43;6.60;;;;;;;20.48;79.92;99359.84;5111561;28;20032;-54
2022/06/03 04:35:37;;;;;;;8.68;6.07;;;;;;;20.59;79.28;99349.25;5129414;27;20032;-53
2022/06/03 04:38:21;;;;;;;10.18;6.78;;;;;;;20.66;78.49;99358.38;5116024;27;20059;-52
2022/06/03 04:41:05;;;;;;;8.73;5.85;;;;;;;20.70;78.09;99353.69;5125410;27;20422;-53
2022/06/03 04:44:02;;;;;;;8.77;6.35;;;;;;;20.79;77.66;99344.16;5110245;28;20096;-53
2022/06/03 04:46:47;;;;;;;11.27;5.97;;;;;;;20.88;77.27;99332.84;5127609;27;20142;-55
2022/06/03 04:49:15;;;;;;;10.18;6.03;;;;;;;20.92;76.81;99336.91;5129954;27;20027;-51
2022/06/03 04:52:13;;;;;;;9.75;6.18;;;;;;;20.94;76.48;99324.38;5112674;27;20048;-51
2022/06/03 04:54:57;;;;;;;7.33;6.40;;;;;;;20.98;76.27;99315.25;5103735;28;20039;-51
2022/06/03 04:57:26;;;;;;;8.57;6.10;;;;;;;21.06;76.08;99296.94;5110231;28;20031;-54
2022/06/03 05:00:16;;;;;;;9.75;6.05;;;;;;;21.23;75.52;99296.41;5110083;28;20464;-53
2022/06/03 05:03:01;;;;;;;9.75;5.53;;;;;;;21.34;75.13;99303.44;5113812;27;20112;-52
2022/06/03 05:06:05;;;;;;;12.82;6.00;;;;;;;21.41;74.54;99299.28;5118954;27;20108;-54
2022/06/03 05:08:49;;;;;;;9.57;5.63;;;;;;;21.46;73.97;99292.63;5112412;28;20089;-53
2022/06/03 05:11:33;;;;;;;13.60;6.07;;;;;;;21.50;73.55;99286.13;5118852;27;20032;-51
2022/06/03 05:14:22;;;;;;;8.73;6.45;;;;;;;21.56;73.43;99287.44;5116425;27;20048;-55
2022/06/03 05:17:16;;;;;;;9.55;6.35;;;;;;;21.69;72.71;99281.91;5109349;27;20039;-54
2022/06/03 05:20:05;;;;;;;11.05;5.88;;;;;;;21.90;71.99;99278.22;5116111;27;20058;-52
2022/06/03 05:22:49;;;;;;;13.18;5.80;;;;;;;22.04;70.89;99276.19;5116276;27;20036;-54
2022/06/03 05:26:13;;;;;;;9.35;5.40;;;;;;;22.21;70.22;99284.34;5120916;27;20051;-54
2022/06/03 05:28:51;;;;;;;12.65;5.28;;;;;;;22.44;69.61;99289.41;5131209;27;20054;-54
2022/06/03 05:31:23;;;;;;;8.80;6.10;;;;;;;22.59;68.46;99283.56;5122206;27;20051;-54
2022/06/03 05:34:08;;;;;;;8.15;6.05;;;;;;;22.66;68.44;99297.91;5113610;28;20503;-55
2022/06/03 05:36:45;;;;;;;9.40;5.57;;;;;;;22.78;67.87;99298.66;5124279;27;20550;-54
2022/06/03 05:39:31;;;;;;;9.05;5.35;;;;;;;23.06;67.01;99304.94;5135393;27;20055;-51
2022/06/03 05:42:34;;;;;;;8.32;5.72;;;;;;;23.46;65.46;99302.94;5119798;27;20044;-54
2022/06/03 05:45:21;;;;;;;10.68;5.80;;;;;;;23.71;63.37;99314.75;5132871;27;20131;-54
2022/06/03 05:48:09;;;;;;;9.32;6.13;;;;;;;23.70;63.29;99313.09;5115914;27;20505;-55
2022/06/03 05:50:46;;;;;;;11.55;5.88;;;;;;;23.62;64.14;99324.41;5127659;27;20081;-55
2022/06/03 05:53:34;;;;;;;11.15;5.55;;;;;;;23.61;63.55;99321.91;5102146;27;20041;-53
2022/06/03 05:56:25;;;;;;;7.63;5.68;;;;;;;23.71;63.49;99324.56;5127168;27;20039;-54
2022/06/03 05:58:59;;;;;;;13.52;6.30;;;;;;;23.61;63.27;99327.22;5118545;27;20080;-53
2022/06/03 06:01:30;;;;;;;9.25;5.75;;;;;;;23.54;63.40;99331.44;5128571;27;20451;-54
2022/06/03 06:04:14;;;;;;;11.05;5.95;;;;;;;23.48;63.55;99322.22;5131572;27;20093;-53
2022/06/03 06:07:27;;;;;;;14.32;6.05;;;;;;;23.30;64.43;99334.50;5114544;27;20060;-58
2022/06/03 06:09:59;;;;;;;14.48;6.32;;;;;;;23.12;65.04;99315.84;5109984;27;20096;-54
2022/06/03 06:12:29;;;;;;;15.75;6.70;;;;;;;23.01;65.72;99312.47;5124921;27;20050;-55
2022/06/03 06:15:26;;;;;;;15.48;6.20;;;;;;;22.86;66.97;99329.78;5125335;27;20043;-53
2022/06/03 06:17:58;;;;;;;11.77;6.13;;;;;;;22.60;67.99;99322.34;5112880;28;20187;-53
2022/06/03 06:20:45;;;;;;;11.20;6.43;;;;;;;22.37;69.12;99318.25;5130934;27;20035;-56
2022/06/03 06:23:18;;;;;;;13.85;6.65;;;;;;;22.24;70.05;99307.88;5131313;27;20031;-54
2022/06/03 06:26:33;;;;;;;10.52;7.03;;;;;;;22.21;70.89;99308.19;5124020;27;20515;-52
2022/06/03 06:29:12;;;;;;;11.25;7.25;;;;;;;22.18;71.35;99302.31;5078805;28;20040;-55
2022/06/03 06:32:09;;;;;;;11.88;7.47;;;;;;;22.13;73.28;99296.59;5116388;27;20040;-54
2022/06/03 06:34:38;;;;;;;11.40;8.23;;;;;;;22.07;75.20;99297.13;5113133;27;20511;-53
2022/06/03 06:37:25;;;;;;;11.68;8.10;;;;;;;21.76;80.49;99307.72;5118767;27;20044;-54
2022/06/03 06:40:12;;;;;;;15.30;8.00;;;;;;;21.09;85.30;99294.06;5128875;27;20085;-55
2022/06/03 06:43:03;;;;;;;12.45;8.10;;;;;;;20.57;90.90;99319.47;5125211;27;20045;-59
2022/06/03 06:45:55;;;;;;;13.15;8.25;;;;;;;20.12;95.96;99329.25;5127465;27;20054;-61
2022/06/03 06:48:38;;;;;;;13.18;9.70;;;;;;;19.92;98.65;99334.44;5124256;27;20046;-59
2022/06/03 06:51:29;;;;;;;14.88;9.93;;;;;;;19.65;100.00;99324.22;5118791;27;20101;-59
2022/06/03 06:54:01;;;;;;;14.05;10.55;;;;;;;19.42;100.00;99328.59;5121685;27;20035;-60
2022/06/03 06:56:38;;;;;;;13.60;10.43;;;;;;;19.25;100.00;99329.03;5117455;27;20170;-60
2022/06/03 06:59:11;;;;;;;16.75;10.95;;;;;;;18.93;100.00;99308.59;5117233;27;20484;-53
2022/06/03 07:01:46;;;;;;;32.97;11.63;;;;;;;18.53;100.00;99336.97;5136814;27;20058;-48
2022/06/03 07:04:19;;;;;;;27.33;13.52;;;;;;;18.15;100.00;99358.16;5128716;27;20038;-54
2022/06/03 07:07:00;;;;;;;28.02;14.68;;;;;;;18.03;100.00;99361.63;5119194;27;20701;-53
2022/06/03 07:09:47;;;;;;;42.58;18.65;;;;;;;17.99;100.00;99370.69;5123442;27;20065;-54
2022/06/03 07:12:22;;;;;;;31.38;13.68;;;;;;;17.90;100.00;99368.69;5121959;27;20367;-54
2022/06/03 07:14:58;;;;;;;26.48;14.13;;;;;;;17.83;100.00;99380.59;5119787;27;20035;-49
2022/06/03 07:20:31;;;;;;;18.23;10.13;;;;;;;17.48;100.00;99379.50;5117023;27;20506;-55
2022/06/03 07:23:04;;;;;;;30.80;15.65;;;;;;;17.59;100.00;99363.81;5124330;27;20403;-57
2022/06/03 07:25:47;;;;;;;17.38;10.23;;;;;;;17.56;100.00;99364.88;5104125;27;20062;-53
2022/06/03 07:28:26;;;;;;;25.73;12.55;;;;;;;17.71;100.00;99363.84;5129155;27;20043;-53
2022/06/03 07:31:29;;;;;;;20.67;11.65;;;;;;;17.73;100.00;99369.00;5130323;27;20042;-51
2022/06/03 07:34:19;;;;;;;24.45;13.60;;;;;;;17.89;100.00;99358.28;5103311;27;20070;-50
2022/06/03 07:36:53;;;;;;;26.77;12.68;;;;;;;18.03;100.00;99347.63;5117469;27;20039;-54
2022/06/03 07:39:34;;;;;;;25.60;13.60;;;;;;;18.18;100.00;99341.28;5115775;27;20047;-52
2022/06/03 07:42:22;;;;;;;18.50;10.80;;;;;;;18.31;100.00;99331.59;5117885;27;20550;-52
2022/06/03 07:45:27;;;;;;;19.48;12.02;;;;;;;18.51;100.00;99346.78;5115704;27;20506;-51
2022/06/03 07:47:58;;;;;;;18.70;10.82;;;;;;;18.81;100.00;99333.19;5124784;27;20039;-56
2022/06/03 07:50:26;;;;;;;11.98;7.90;;;;;;;19.19;100.00;99337.41;5118970;27;20036;-55
2022/06/03 07:52:58;;;;;;;13.70;9.63;;;;;;;19.89;100.00;99352.16;5112615;27;20035;-55
2022/06/03 07:55:26;;;;;;;10.38;6.35;;;;;;;19.93;100.00;99346.69;5127466;27;20070;-54
2022/06/03 07:57:58;;;;;;;9.88;6.60;;;;;;;20.57;100.00;99345.06;5109874;27;20435;-55
2022/06/03 08:00:25;;;;;;;8.00;6.30;;;;;;;20.48;100.00;99338.72;5122327;27;20043;-55
2022/06/03 08:03:08;;;;;;;8.30;6.47;;;;;;;20.87;100.00;99341.72;5126915;27;20509;-55
2022/06/03 08:05:34;;;;;;;8.13;6.75;;;;;;;21.04;100.00;99325.34;5095401;27;20499;-55
2022/06/03 08:10:57;;;;;;;5.90;4.80;;;;;;;22.69;100.00;99355.97;5123104;27;20035;-56
2022/06/03 08:13:41;;;;;;;8.52;5.40;;;;;;;22.69;100.00;99355.97;5109423;27;20043;-56
2022/06/03 08:16:33;;;;;;;9.73;5.43;;;;;;;23.09;100.00;99355.03;5124747;27;20031;-56
2022/06/03 08:19:06;;;;;;;8.95;5.53;;;;;;;22.58;100.00;99348.13;5092727;27;20142;-52
2022/06/03 08:21:55;;;;;;;8.20;5.68;;;;;;;22.82;100.00;99360.22;5113346;27;20051;-52
2022/06/03 08:24:30;;;;;;;7.38;5.10;;;;;;;22.67;100.00;99349.97;5127759;27;20035;-55
2022/06/03 08:27:12;;;;;;;6.18;5.13;;;;;;;22.83;100.00;99362.69;5130807;27;20516;-56
2022/06/03 08:29:47;;;;;;;6.93;4.65;;;;;;;22.02;100.00;99347.84;5126504;27;20043;-56
2022/06/03 08:32:16;;;;;;;5.93;5.03;;;;;;;21.63;100.00;99359.16;5110070;27;20483;-53
2022/06/03 08:34:49;;;;;;;6.60;4.68;;;;;;;21.22;100.00;99357.34;5114439;27;20066;-55
2022/06/03 08:37:25;;;;;;;8.02;4.75;;;;;;;21.24;100.00;99366.84;5105505;27;20039;-56
2022/06/03 08:39:52;;;;;;;6.50;5.20;;;;;;;20.96;100.00;99351.53;5119316;27;20083;-54
2022/06/03 08:42:27;;;;;;;5.95;5.03;;;;;;;21.70;100.00;99355.03;5114432;27;20040;-55
2022/06/03 08:45:03;;;;;;;6.97;5.40;;;;;;;22.23;100.00;99359.22;5120562;27;20534;-54
2022/06/03 08:47:37;;;;;;;7.78;5.68;;;;;;;22.58;100.00;99366.69;5120806;27;20043;-54
2022/06/03 08:50:13;;;;;;;9.27;5.50;;;;;;;22.03;100.00;99372.50;5111240;28;20096;-56
2022/06/03 08:53:00;;;;;;;6.18;5.20;;;;;;;21.63;98.92;99375.88;5118260;27;20042;-53
2022/06/03 08:55:44;;;;;;;7.88;4.45;;;;;;;21.47;98.21;99376.31;5115960;28;20039;-49
2022/06/03 08:58:33;;;;;;;6.75;4.97;;;;;;;21.28;94.67;99376.19;5114955;28;20044;-52
2022/06/03 09:01:20;;;;;;;6.35;4.70;;;;;;;21.27;96.46;99385.09;5111640;28;20122;-51
2022/06/03 09:04:12;;;;;;;6.35;4.72;;;;;;;21.12;89.48;99381.03;5099076;28;20032;-50
2022/06/03 09:06:46;;;;;;;10.70;5.55;;;;;;;21.06;94.30;99385.03;5099537;28;20104;-50
2022/06/03 09:09:24;;;;;;;6.82;4.88;;;;;;;20.93;94.91;99394.94;5122300;28;20043;-52
2022/06/03 09:12:29;;;;;;;8.98;5.30;;;;;;;20.87;88.66;99389.31;5128089;28;20083;-53
2022/06/03 09:14:56;;;;;;;8.05;4.70;;;;;;;20.66;89.05;99390.09;5104929;28;20079;-49
2022/06/03 09:17:48;;;;;;;6.72;5.30;;;;;;;20.70;96.13;99411.81;5120406;28;20467;-51
2022/06/03 09:20:19;;;;;;;6.65;5.22;;;;;;;20.57;95.61;99395.25;5107971;28;20146;-52
2022/06/03 09:22:46;;;;;;;7.20;4.90;;;;;;;20.50;90.66;99410.75;5092832;28;20050;-52
2022/06/03 09:25:14;;;;;;;6.25;5.38;;;;;;;20.41;96.31;99414.09;5114365;28;20096;-49
2022/06/03 09:27:41;;;;;;;6.67;4.90;;;;;;;20.37;88.92;99406.56;5120627;27;20051;-50
2022/06/03 09:30:08;;;;;;;6.25;5.15;;;;;;;20.50;92.86;99418.69;5114018;28;20364;-53
2022/06/03 09:32:38;;;;;;;8.25;4.45;;;;;;;20.40;88.06;99415.09;5128525;28;20545;-52
2022/06/03 09:35:15;;;;;;;6.60;4.60;;;;;;;20.39;85.08;99412.56;5122018;27;20031;-55
2022/06/03 09:37:43;;;;;;;7.55;5.13;;;;;;;20.40;90.65;99416.88;5123023;28;20129;-52
2022/06/03 09:40:17;;;;;;;7.32;4.90;;;;;;;20.45;92.96;99422.66;5103960;28;20093;-54
2022/06/03 09:42:51;;;;;;;7.25;5.03;;;;;;;20.30;86.60;99403.53;5110730;28;20035;-50
2022/06/03 09:45:20;;;;;;;5.20;4.70;;;;;;;20.33;85.00;99413.03;5119239;28;20076;-51
2022/06/03 09:47:47;;;;;;;6.45;4.75;;;;;;;20.45;88.08;99428.78;5115839;28;20034;-50
2022/06/03 09:50:15;;;;;;;7.38;4.80;;;;;;;20.45;86.13;99425.28;5116058;27;20142;-51
2022/06/03 09:52:40;;;;;;;6.53;5.10;;;;;;;20.53;85.88;99417.59;5126243;27;20529;-52
2022/06/03 09:55:19;;;;;;;7.30;4.65;;;;;;;20.64;84.46;99421.06;5129150;27;20039;-53
2022/06/03 09:57:45;;;;;;;;;;;;;;;20.66;81.74;99424.44;5131034;27;20476;-53
2022/06/03 10:00:21;;;;;;;5.65;4.28;;;;;;;20.55;86.19;99423.59;5114274;27;19916;-53
2022/06/03 10:02:47;;;;;;;6.03;4.80;;;;;;;20.59;86.87;99436.44;5118751;27;20039;-49
2022/06/03 10:05:16;;;;;;;6.40;5.40;;;;;;;20.63;87.40;99437.03;5121786;27;20039;-49
2022/06/03 10:07:47;;;;;;;6.43;4.80;;;;;;;20.61;82.60;99434.53;5130122;27;20060;-55
2022/06/03 10:13:03;;;;;;;6.00;5.05;;;;;;;20.44;80.29;99423.59;5130926;27;20084;-51
2022/06/03 10:15:42;;;;;;;5.15;4.57;;;;;;;20.79;79.45;99429.56;5129117;27;20039;-49
2022/06/03 10:18:46;;;;;;;8.93;5.60;;;;;;;21.56;73.43;99422.34;5128861;27;20043;-52
2022/06/03 10:21:12;;;;;;;6.80;5.00;;;;;;;21.92;82.31;99424.53;5070190;28;20129;-52
2022/06/03 10:23:45;;;;;;;6.22;5.20;;;;;;;21.97;82.22;99426.81;5115982;27;20518;-55
2022/06/03 10:26:39;;;;;;;8.10;5.22;;;;;;;21.52;75.64;99429.69;5125610;27;20027;-53
2022/06/03 10:29:20;;;;;;;7.13;4.40;;;;;;;20.98;77.39;99424.47;5115267;27;20450;-52
2022/06/03 10:31:54;;;;;;;6.45;4.32;;;;;;;20.62;78.34;99422.97;5130780;27;20563;-52
2022/06/03 10:34:26;;;;;;;4.85;4.20;;;;;;;20.18;77.97;99413.25;5132083;27;20510;-51
2022/06/03 10:36:56;;;;;;;5.35;3.95;;;;;;;19.95;79.46;99432.66;5133345;27;20070;-50
2022/06/03 10:39:30;;;;;;;5.85;4.50;;;;;;;19.74;83.75;99429.88;5131492;27;20051;-52
2022/06/03 10:42:00;;;;;;;5.38;4.65;;;;;;;19.65;81.89;99432.38;5125409;27;20074;-50
2022/06/03 10:44:33;;;;;;;7.22;4.35;;;;;;;19.56;83.15;99438.34;5099700;27;20586;-49
2022/06/03 10:47:14;;;;;;;6.57;4.90;;;;;;;19.60;83.90;99443.25;5125694;27;20142;-56
2022/06/03 10:49:57;;;;;;;4.97;4.47;;;;;;;19.69;89.01;99453.13;5126659;27;20039;-55
2022/06/03 11:01:46;;;;;;;9.55;4.32;;;;;;;21.65;78.36;99469.19;5122335;27;20108;-54
2022/06/03 11:04:29;;;;;;;6.55;3.88;;;;;;;21.37;69.96;99478.56;5132496;27;20044;-51
2022/06/03 11:06:58;;;;;;;9.02;4.50;;;;;;;21.35;78.58;99487.59;5128155;27;20053;-50
2022/06/03 11:09:25;;;;;;;4.68;4.07;;;;;;;21.58;68.13;99509.50;5114699;27;20092;-50
2022/06/03 11:11:51;;;;;;;6.20;4.55;;;;;;;21.70;71.12;99512.00;5117487;27;20514;-53
2022/06/03 11:14:30;;;;;;;4.43;4.03;;;;;;;21.75;65.81;99504.50;5123013;27;20088;-53
2022/06/03 11:16:59;;;;;;;4.93;4.47;;;;;;;21.62;67.59;99509.13;5121887;27;20116;-51
2022/06/03 11:19:25;;;;;;;7.68;4.90;;;;;;;21.83;70.33;99510.00;5122820;27;20521;-54
2022/06/03 11:22:14;;;;;;;8.27;4.97;;;;;;;22.61;64.14;99536.00;5130781;27;20077;-55
2022/06/03 11:24:40;;;;;;;5.95;5.35;;;;;;;23.05;67.94;99532.16;5131727;27;20050;-54
2022/06/03 11:27:08;;;;;;;6.63;5.03;;;;;;;24.49;61.57;99526.88;5130201;27;20577;-54
2022/06/03 11:29:37;;;;;;;12.52;5.53;;;;;;;25.07;59.15;99547.94;5118565;27;20074;-52
2022/06/03 11:32:05;;;;;;;4.43;3.97;;;;;;;24.39;54.90;99565.13;5112367;27;20043;-53
2022/06/03 11:34:37;;;;;;;11.98;5.60;;;;;;;23.30;63.45;99564.47;5132233;27;20038;-52
2022/06/03 11:37:11;;;;;;;8.32;5.75;;;;;;;23.15;70.94;99567.50;5114060;27;20080;-52
2022/06/03 11:39:55;;;;;;;7.88;6.15;;;;;;;23.11;71.94;99583.84;5104776;27;20050;-50
2022/06/03 11:42:22;;;;;;;8.95;6.05;;;;;;;22.51;68.53;99588.13;5122359;27;20043;-51
2022/06/03 11:45:10;;;;;;;7.90;5.68;;;;;;;21.48;64.39;99586.16;5107659;28;20062;-50
2022/06/03 11:47:49;;;;;;;8.23;6.28;;;;;;;20.89;71.79;99593.50;5110096;28;20043;-50
2022/06/03 11:50:17;;;;;;;13.57;6.10;;;;;;;20.84;74.44;99600.94;5110714;27;20404;-51
2022/06/03 11:52:43;;;;;;;5.72;4.90;;;;;;;20.65;74.00;99580.41;5108778;28;20039;-50
2022/06/03 11:55:10;;;;;;;10.23;6.65;;;;;;;20.71;79.52;99601.91;5110687;28;20039;-52
2022/06/03 11:57:40;;;;;;;7.70;5.88;;;;;;;20.71;78.85;99590.50;5111683;28;20036;-49
2022/06/03 12:00:10;;;;;;;7.28;5.10;;;;;;;21.11;76.92;99597.00;5123253;27;20095;-59
2022/06/03 12:02:41;;;;;;;5.47;3.95;;;;;;;21.24;71.12;99596.06;5108997;27;20047;-53
2022/06/03 12:05:17;;;;;;;4.30;3.90;;;;;;;21.12;70.89;99593.38;5118772;27;20042;-53
2022/06/03 12:07:49;;;;;;;9.63;4.57;;;;;;;20.75;72.27;99604.31;5112290;27;20433;-56
2022/06/03 12:10:24;;;;;;;4.97;3.53;;;;;;;20.29;67.91;99600.72;5127040;27;20035;-55
2022/06/03 12:13:15;;;;;;;4.20;3.80;;;;;;;20.14;74.39;99608.97;5123485;27;20047;-53
2022/06/03 12:15:49;;;;;;;4.53;3.33;;;;;;;20.07;77.59;99608.56;5117302;27;20043;-52
2022/06/03 12:18:21;;;;;;;7.53;4.10;;;;;;;20.09;81.51;99613.75;5123876;27;20517;-52
2022/06/03 12:20:47;;;;;;;5.32;4.00;;;;;;;20.15;78.03;99603.53;5125672;27;20023;-53
2022/06/03 12:23:13;;;;;;;9.85;3.00;;;;;;;20.15;84.69;99610.66;5115614;27;20050;-50
2022/06/03 12:25:45;;;;;;;7.18;3.00;;;;;;;19.78;75.55;99612.53;5112258;28;20032;-54
2022/06/03 12:28:30;;;;;;;4.07;2.60;;;;;;;19.51;78.37;99615.38;5120354;27;20036;-54
2022/06/03 12:31:19;;;;;;;5.40;3.08;;;;;;;19.28;79.91;99624.03;5121595;27;20551;-50
2022/06/03 12:34:09;;;;;;;5.50;2.72;;;;;;;18.93;72.12;99629.16;5106897;27;20039;-53
2022/06/03 12:36:39;;;;;;;4.70;3.15;;;;;;;18.74;73.54;99620.81;5107842;28;20052;-50
2022/06/03 12:39:08;;;;;;;;;;;;;;;18.51;75.47;99633.75;5110765;28;20051;-49
2022/06/03 12:41:46;;;;;;;9.00;2.95;;;;;;;18.32;77.39;99635.91;5111541;27;19920;-54
2022/06/03 12:44:34;;;;;;;7.10;2.75;;;;;;;18.15;78.27;99633.59;5109782;27;20101;-55
2022/06/03 12:47:25;;;;;;;7.40;3.60;;;;;;;18.08;79.52;99646.31;5119429;27;20053;-53
2022/06/03 12:49:56;;;;;;;5.80;3.10;;;;;;;18.08;79.34;99659.47;5119772;27;20054;-55
2022/06/03 12:52:25;;;;;;;5.38;3.30;;;;;;;18.03;80.25;99653.66;5111293;28;20039;-56